Time;durP1;ratioP1;P1;durP2;ratioP2;P2;SDS_P1;SDS_P2;PMS_P1;PMS_P2;Temp;Humidity;BMP_temperature;BMP_pressure;BME280_temperature;BME280_humidity;BME280_pressure;Samples;Min_cycle;Max_cycle;Signal;HPM_P1;HPM_P2
2023/03/15 00:02:06;;;;;;;7.32;6.63;;;22.20;69.00;;;;;;6086908;28;90452;-71
2023/03/15 00:05:11;;;;;;;7.22;6.53;;;22.20;68.90;;;;;;6076379;28;89392;-71
2023/03/15 00:08:14;;;;;;;7.28;6.57;;;22.20;68.90;;;;;;6076508;28;89256;-71
2023/03/15 00:11:17;;;;;;;6.97;6.38;;;22.20;68.90;;;;;;6086427;28;89127;-71
2023/03/15 00:14:20;;;;;;;6.95;6.18;;;22.20;68.90;;;;;;6087655;28;89137;-71
2023/03/15 00:17:22;;;;;;;6.78;6.18;;;22.20;68.90;;;;;;6086796;28;89035;-71
2023/03/15 00:20:24;;;;;;;7.32;6.63;;;22.10;68.90;;;;;;6086706;28;89192;-71
2023/03/15 00:23:26;;;;;;;7.00;6.30;;;22.10;68.90;;;;;;6087738;28;88036;-70
2023/03/15 00:26:28;;;;;;;7.18;6.47;;;22.10;68.90;;;;;;6085319;28;88018;-70
2023/03/15 00:29:32;;;;;;;7.13;6.43;;;22.10;68.90;;;;;;6077053;28;89106;-71
2023/03/15 00:32:34;;;;;;;6.82;6.22;;;22.10;68.90;;;;;;6087012;28;90285;-71
2023/03/15 00:35:39;;;;;;;6.78;6.18;;;22.10;68.90;;;;;;6085600;28;89314;-71
2023/03/15 00:38:43;;;;;;;6.68;6.07;;;22.10;68.90;;;;;;6086527;28;89313;-71
2023/03/15 00:41:46;;;;;;;6.70;6.10;;;22.10;68.90;;;;;;6074398;28;89055;-71
2023/03/15 00:44:50;;;;;;;6.47;5.88;;;22.10;68.80;;;;;;6087555;28;89510;-71
2023/03/15 00:47:54;;;;;;;6.70;6.10;;;22.10;68.80;;;;;;6086128;28;89181;-71
2023/03/15 00:51:03;;;;;;;6.68;6.07;;;22.10;68.80;;;;;;6086840;28;89095;-71
2023/03/15 00:54:05;;;;;;;7.00;6.25;;;22.10;68.90;;;;;;6083912;28;88734;-71
2023/03/15 00:57:07;;;;;;;6.50;5.90;;;22.10;68.90;;;;;;6086093;28;88020;-71
2023/03/15 01:00:14;;;;;;;6.70;6.00;;;22.10;68.90;;;;;;6078283;28;87979;-71
2023/03/15 01:03:16;;;;;;;6.50;5.90;;;22.10;68.90;;;;;;6081764;28;89886;-71
2023/03/15 01:06:20;;;;;;;7.00;6.07;;;22.00;68.90;;;;;;6086304;28;89016;-70
2023/03/15 01:09:22;;;;;;;6.60;6.00;;;22.00;68.90;;;;;;6086973;28;89414;-70
2023/03/15 01:12:24;;;;;;;5.95;5.35;;;22.10;68.90;;;;;;6086529;28;89062;-71
2023/03/15 01:15:28;;;;;;;6.40;5.80;;;22.00;68.90;;;;;;6086194;28;89179;-70
2023/03/15 01:18:30;;;;;;;6.32;5.72;;;22.00;68.90;;;;;;6085879;28;89076;-71
2023/03/15 01:21:32;;;;;;;5.95;5.45;;;22.10;68.90;;;;;;6086600;28;89255;-71
2023/03/15 01:24:34;;;;;;;6.25;5.65;;;22.10;69.00;;;;;;6075994;28;88620;-70
2023/03/15 01:27:37;;;;;;;6.20;5.60;;;22.10;68.90;;;;;;6084747;28;89256;-70
2023/03/15 01:30:40;;;;;;;6.07;5.47;;;22.10;68.90;;;;;;6085798;28;89236;-71
2023/03/15 01:33:42;;;;;;;6.10;5.50;;;22.00;68.80;;;;;;6084886;28;90462;-71
2023/03/15 01:36:44;;;;;;;5.47;4.97;;;22.10;68.90;;;;;;6084328;28;89129;-71
2023/03/15 01:39:49;;;;;;;5.97;5.38;;;22.00;69.80;;;;;;6074361;28;89095;-71
2023/03/15 01:42:53;;;;;;;6.40;5.78;;;22.00;68.90;;;;;;6086027;28;88768;-71
2023/03/15 01:46:06;;;;;;;5.53;5.03;;;22.00;68.90;;;;;;6085276;28;89145;-71
2023/03/15 01:49:11;;;;;;;5.85;5.25;;;22.00;68.90;;;;;;6077017;28;89034;-70
2023/03/15 01:52:18;;;;;;;6.00;5.40;;;22.00;68.90;;;;;;6069480;28;89130;-70
2023/03/15 01:55:20;;;;;;;5.75;5.15;;;22.00;68.90;;;;;;6079879;28;87363;-71
2023/03/15 01:58:26;;;;;;;6.00;5.40;;;22.00;68.90;;;;;;6078822;28;89034;-71
2023/03/15 02:01:31;;;;;;;6.28;5.68;;;22.00;68.90;;;;;;6081578;28;89089;-70
2023/03/15 02:04:38;;;;;;;6.03;5.43;;;22.00;68.80;;;;;;6083839;28;90059;-71
2023/03/15 02:07:48;;;;;;;6.20;5.60;;;22.00;68.90;;;;;;6084459;28;89169;-70
2023/03/15 02:10:53;;;;;;;6.18;5.57;;;22.00;68.90;;;;;;6077822;28;89391;-71
2023/03/15 02:13:57;;;;;;;6.20;5.60;;;21.90;68.80;;;;;;6084925;28;89124;-70
2023/03/15 02:17:01;;;;;;;6.00;5.40;;;22.00;68.90;;;;;;6081833;28;89101;-70
2023/03/15 02:20:18;;;;;;;6.25;5.65;;;22.00;68.90;;;;;;6071808;28;89334;-72
2023/03/15 02:23:23;;;;;;;6.25;5.65;;;21.90;68.80;;;;;;6068149;28;89255;-71
2023/03/15 02:26:33;;;;;;;6.60;5.90;;;21.90;68.80;;;;;;6081653;28;88128;-71
2023/03/15 02:29:37;;;;;;;6.68;6.00;;;21.90;68.90;;;;;;6084512;28;89109;-71
2023/03/15 02:32:39;;;;;;;6.50;5.80;;;21.90;68.90;;;;;;6084572;28;89036;-71
2023/03/15 02:35:41;;;;;;;6.53;5.93;;;21.90;68.80;;;;;;6074077;28;90053;-71
2023/03/15 02:38:43;;;;;;;6.20;5.60;;;21.90;68.80;;;;;;6085796;28;89039;-71
2023/03/15 02:41:48;;;;;;;6.78;6.07;;;21.90;68.80;;;;;;6077458;28;89293;-70
2023/03/15 02:44:54;;;;;;;7.00;6.30;;;21.90;68.80;;;;;;6087839;28;89065;-71
2023/03/15 02:47:57;;;;;;;6.93;6.22;;;21.90;68.80;;;;;;6084624;28;89347;-71
2023/03/15 02:50:59;;;;;;;6.78;6.18;;;21.90;68.80;;;;;;6077193;28;88033;-71
2023/03/15 02:54:01;;;;;;;6.78;6.18;;;21.90;68.80;;;;;;6065918;28;88917;-70
2023/03/15 02:57:03;;;;;;;6.45;5.85;;;21.90;68.80;;;;;;6081364;28;88524;-70
2023/03/15 03:00:13;;;;;;;6.72;6.13;;;21.90;68.80;;;;;;6078835;28;89074;-71
2023/03/15 03:03:15;;;;;;;6.95;6.25;;;21.90;68.90;;;;;;6083875;28;89114;-71
2023/03/15 03:06:17;;;;;;;6.88;6.28;;;21.90;68.80;;;;;;6078999;28;88976;-71
2023/03/15 03:09:20;;;;;;;7.25;6.55;;;21.90;68.80;;;;;;6073502;28;89160;-70
2023/03/15 03:12:22;;;;;;;7.18;6.47;;;21.90;68.80;;;;;;6090976;28;88379;-71
2023/03/15 03:15:25;;;;;;;7.00;6.30;;;21.90;68.80;;;;;;6084827;28;89096;-71
2023/03/15 03:18:28;;;;;;;7.05;6.35;;;21.90;68.80;;;;;;6087954;28;88171;-71
2023/03/15 03:21:30;;;;;;;6.85;6.25;;;21.90;68.80;;;;;;6087446;28;88990;-71
2023/03/15 03:24:32;;;;;;;6.72;6.03;;;21.90;68.80;;;;;;6087639;28;89077;-71
2023/03/15 03:27:35;;;;;;;7.43;6.65;;;21.90;68.80;;;;;;6084520;28;88394;-71
2023/03/15 03:30:38;;;;;;;6.55;5.90;;;21.90;68.80;;;;;;6077199;28;89439;-71
2023/03/15 03:33:40;;;;;;;6.55;5.95;;;21.80;68.80;;;;;;6099603;28;89192;-72
2023/03/15 03:36:43;;;;;;;6.65;6.05;;;21.80;68.80;;;;;;6105707;28;90068;-71
2023/03/15 03:39:45;;;;;;;6.85;6.15;;;21.80;68.80;;;;;;6100249;28;89107;-71
2023/03/15 03:42:47;;;;;;;7.00;6.30;;;21.80;68.80;;;;;;6082392;28;89401;-72
2023/03/15 03:45:51;;;;;;;6.57;5.80;;;21.90;68.80;;;;;;6090080;28;89069;-72
2023/03/15 03:48:53;;;;;;;7.43;6.47;;;21.80;68.80;;;;;;6097678;28;89150;-72
2023/03/15 03:51:55;;;;;;;7.10;6.40;;;21.80;68.80;;;;;;6088528;28;88026;-72
2023/03/15 03:54:57;;;;;;;6.95;6.25;;;21.80;68.70;;;;;;6074231;28;89035;-71
2023/03/15 03:57:59;;;;;;;6.30;5.70;;;21.80;68.70;;;;;;6085147;28;88623;-71
2023/03/15 04:01:02;;;;;;;6.53;5.93;;;21.80;68.70;;;;;;6080682;28;89491;-72
2023/03/15 04:04:05;;;;;;;6.22;5.63;;;21.80;68.80;;;;;;6083865;28;89222;-71
2023/03/15 04:07:07;;;;;;;7.05;6.03;;;21.80;68.80;;;;;;6086704;28;90107;-71
2023/03/15 04:10:13;;;;;;;6.75;6.05;;;21.80;68.80;;;;;;6087058;28;89303;-70
2023/03/15 04:13:15;;;;;;;6.38;5.78;;;21.80;68.80;;;;;;6076465;28;89249;-71
2023/03/15 04:16:19;;;;;;;5.97;5.38;;;21.80;68.80;;;;;;6088099;28;89058;-71
2023/03/15 04:19:21;;;;;;;6.20;5.60;;;21.80;68.80;;;;;;6109941;28;89141;-71
2023/03/15 04:22:23;;;;;;;6.28;5.68;;;21.70;69.60;;;;;;6089417;28;89373;-70
2023/03/15 04:25:25;;;;;;;7.53;6.07;;;21.70;68.70;;;;;;6088750;28;89020;-70
2023/03/15 04:28:29;;;;;;;6.30;5.70;;;21.80;68.70;;;;;;6080376;28;88270;-71
2023/03/15 04:31:36;;;;;;;6.45;5.80;;;21.80;68.80;;;;;;6099811;28;89040;-71
2023/03/15 04:34:38;;;;;;;6.32;5.72;;;21.70;68.60;;;;;;6104123;28;89487;-71
2023/03/15 04:37:41;;;;;;;6.05;5.45;;;21.80;68.80;;;;;;6105593;28;90084;-70
2023/03/15 04:40:43;;;;;;;6.72;5.75;;;21.80;68.70;;;;;;6099039;28;88912;-71
2023/03/15 04:43:45;;;;;;;7.32;5.88;;;21.70;68.60;;;;;;6084781;28;89359;-71
2023/03/15 04:46:50;;;;;;;5.55;5.05;;;21.80;68.60;;;;;;6075912;28;89585;-71
2023/03/15 04:49:52;;;;;;;6.07;5.47;;;21.80;68.60;;;;;;6085273;28;89246;-71
2023/03/15 04:52:54;;;;;;;5.80;5.30;;;21.80;68.60;;;;;;6077272;28;89061;-71
2023/03/15 04:55:56;;;;;;;5.53;5.03;;;21.80;68.60;;;;;;6083281;28;89108;-71
2023/03/15 04:58:58;;;;;;;5.78;5.18;;;21.70;68.50;;;;;;6086497;28;88331;-71
2023/03/15 05:02:02;;;;;;;5.85;5.18;;;21.80;68.50;;;;;;6075188;28;89197;-71
2023/03/15 05:05:04;;;;;;;5.45;4.95;;;21.80;68.50;;;;;;6087489;28;89442;-71
2023/03/15 05:08:06;;;;;;;5.70;5.10;;;21.80;68.50;;;;;;6097124;28;90372;-71
2023/03/15 05:11:09;;;;;;;5.15;4.65;;;21.80;68.50;;;;;;6073879;28;89038;-72
2023/03/15 05:14:11;;;;;;;5.13;4.63;;;21.80;69.40;;;;;;6085773;28;89065;-71
2023/03/15 05:17:14;;;;;;;5.10;4.60;;;21.80;68.40;;;;;;6085516;28;89057;-71
2023/03/15 05:20:17;;;;;;;4.95;4.45;;;21.80;68.40;;;;;;6086529;28;89235;-72
2023/03/15 05:23:21;;;;;;;4.60;4.13;;;21.80;68.30;;;;;;6083920;28;89016;-71
2023/03/15 05:26:23;;;;;;;5.43;4.93;;;21.80;68.30;;;;;;6083149;28;89300;-72
2023/03/15 05:29:25;;;;;;;5.63;4.95;;;21.90;68.40;;;;;;6085103;28;88561;-70
2023/03/15 05:32:33;;;;;;;5.30;4.57;;;21.80;68.30;;;;;;6096968;28;89099;-71
2023/03/15 05:35:35;;;;;;;4.50;4.10;;;21.90;68.30;;;;;;6097430;28;89330;-70
2023/03/15 05:38:37;;;;;;;4.68;4.22;;;21.90;68.40;;;;;;6085715;28;90052;-70
2023/03/15 05:41:39;;;;;;;4.53;4.13;;;21.90;68.30;;;;;;6085026;28;89172;-71
2023/03/15 05:44:41;;;;;;;5.10;4.50;;;21.90;68.30;;;;;;6097214;28;89205;-71
2023/03/15 05:47:44;;;;;;;3.90;3.60;;;21.90;68.30;;;;;;6098065;28;88019;-71
2023/03/15 05:50:46;;;;;;;4.82;4.40;;;21.90;68.30;;;;;;6086539;28;89131;-71
2023/03/15 05:53:48;;;;;;;4.30;3.90;;;21.90;69.10;;;;;;6084927;28;89118;-70
2023/03/15 05:56:50;;;;;;;5.18;4.35;;;21.90;68.20;;;;;;6086942;28;89086;-71
2023/03/15 05:59:52;;;;;;;4.65;4.18;;;21.90;68.20;;;;;;6096013;28;88459;-71
2023/03/15 06:02:55;;;;;;;4.18;3.78;;;21.90;68.20;;;;;;6080423;28;89331;-70
2023/03/15 06:05:58;;;;;;;4.05;3.65;;;22.00;68.30;;;;;;6085594;28;89059;-71
2023/03/15 06:09:00;;;;;;;4.20;3.80;;;22.00;68.20;;;;;;6084598;28;90007;-70
2023/03/15 06:12:02;;;;;;;3.95;3.55;;;21.90;68.20;;;;;;6084633;28;89106;-70
2023/03/15 06:15:04;;;;;;;3.85;3.45;;;22.00;68.20;;;;;;6085385;28;89146;-70
2023/03/15 06:18:08;;;;;;;3.95;3.55;;;22.00;68.30;;;;;;6085813;28;89140;-70
2023/03/15 06:21:10;;;;;;;3.60;3.30;;;22.00;68.10;;;;;;6085968;28;89339;-71
2023/03/15 06:24:12;;;;;;;3.85;3.47;;;22.00;68.10;;;;;;6084395;28;89936;-70
2023/03/15 06:27:14;;;;;;;3.90;3.58;;;22.00;68.10;;;;;;6080194;28;89119;-70
2023/03/15 06:30:16;;;;;;;3.25;2.95;;;22.00;68.00;;;;;;6085127;28;88448;-70
2023/03/15 06:33:20;;;;;;;3.72;3.33;;;22.00;68.00;;;;;;6084291;28;89154;-71
2023/03/15 06:36:23;;;;;;;3.65;3.30;;;22.00;67.90;;;;;;6095702;28;87969;-70
2023/03/15 06:39:25;;;;;;;3.45;3.15;;;22.00;67.90;;;;;;6083674;28;90061;-70
2023/03/15 06:42:27;;;;;;;3.83;3.20;;;22.00;67.90;;;;;;6084469;28;89052;-70
2023/03/15 06:45:30;;;;;;;3.58;3.15;;;22.00;67.90;;;;;;6084245;28;89021;-70
2023/03/15 06:48:34;;;;;;;3.30;3.00;;;22.00;67.90;;;;;;6063867;28;89009;-71
2023/03/15 06:51:36;;;;;;;3.25;2.95;;;22.00;67.90;;;;;;6085042;28;88300;-70
2023/03/15 06:54:38;;;;;;;3.65;3.35;;;22.00;67.90;;;;;;6089898;28;89127;-70
2023/03/15 06:57:40;;;;;;;2.95;2.67;;;22.00;67.80;;;;;;6088827;28;89129;-70
2023/03/15 07:00:43;;;;;;;3.50;2.80;;;22.00;67.80;;;;;;6083108;28;88356;-70
2023/03/15 07:03:46;;;;;;;3.58;3.13;;;22.00;67.80;;;;;;6084472;28;89211;-70
2023/03/15 07:06:48;;;;;;;3.15;2.85;;;22.10;67.80;;;;;;6088660;28;89104;-70
2023/03/15 07:09:50;;;;;;;3.25;2.83;;;22.00;67.70;;;;;;6089302;28;88841;-70
2023/03/15 07:12:52;;;;;;;2.85;2.55;;;22.00;67.70;;;;;;6089339;28;89407;-70
2023/03/15 07:15:55;;;;;;;2.72;2.53;;;22.10;67.70;;;;;;6079912;28;89070;-70
2023/03/15 07:18:58;;;;;;;3.03;2.70;;;22.00;67.70;;;;;;6088474;28;89439;-70
2023/03/15 07:22:00;;;;;;;2.60;2.40;;;22.00;67.70;;;;;;6089066;28;89323;-70
2023/03/15 07:25:03;;;;;;;2.70;2.50;;;22.00;67.70;;;;;;6087246;28;89257;-70
2023/03/15 07:28:05;;;;;;;2.65;2.45;;;22.10;68.60;;;;;;6086475;28;89175;-70
2023/03/15 07:31:08;;;;;;;2.70;2.50;;;22.10;67.70;;;;;;6088699;28;88694;-71
2023/03/15 07:34:11;;;;;;;3.35;2.83;;;22.10;67.60;;;;;;6087333;28;89126;-71
2023/03/15 07:37:13;;;;;;;2.53;2.33;;;22.10;67.60;;;;;;6088215;28;89123;-70
2023/03/15 07:40:15;;;;;;;2.58;2.38;;;22.10;67.60;;;;;;6087903;28;91252;-70
2023/03/15 07:43:18;;;;;;;2.60;2.40;;;22.10;67.60;;;;;;6100743;28;89518;-70
2023/03/15 07:46:20;;;;;;;2.72;2.53;;;22.10;67.60;;;;;;6087964;28;89095;-70
2023/03/15 07:49:24;;;;;;;2.67;2.47;;;22.10;67.60;;;;;;6077838;28;89083;-70
2023/03/15 07:52:26;;;;;;;2.47;2.28;;;22.10;67.50;;;;;;6087486;28;89466;-70
2023/03/15 07:55:28;;;;;;;2.50;2.30;;;22.10;67.60;;;;;;6088432;28;89041;-70
2023/03/15 07:58:30;;;;;;;2.85;2.50;;;22.10;67.60;;;;;;6085595;28;89209;-71
2023/03/15 08:01:32;;;;;;;3.45;2.83;;;22.10;67.50;;;;;;6069590;28;88668;-71
2023/03/15 08:04:36;;;;;;;2.60;2.40;;;22.10;67.50;;;;;;6088342;28;88008;-71
2023/03/15 08:07:38;;;;;;;2.65;2.45;;;22.10;67.50;;;;;;6086741;28;89158;-70
2023/03/15 08:10:40;;;;;;;2.80;2.55;;;22.10;67.50;;;;;;6099498;28;88941;-70
2023/03/15 08:13:42;;;;;;;2.95;2.55;;;22.10;67.60;;;;;;6087657;28;89193;-70
2023/03/15 08:16:44;;;;;;;2.60;2.40;;;22.10;67.40;;;;;;6088344;28;89471;-70
2023/03/15 08:19:47;;;;;;;3.20;2.88;;;22.10;67.40;;;;;;6087416;28;89113;-71
2023/03/15 08:22:50;;;;;;;3.88;3.22;;;22.10;67.40;;;;;;6088380;28;89059;-70
2023/03/15 08:25:52;;;;;;;3.95;3.40;;;22.20;67.50;;;;;;6093858;28;89044;-70
2023/03/15 08:28:54;;;;;;;2.92;2.63;;;22.20;67.50;;;;;;6075770;28;89174;-70
2023/03/15 08:31:56;;;;;;;3.08;2.78;;;22.20;67.40;;;;;;6087597;28;88395;-71
2023/03/15 08:34:59;;;;;;;3.08;2.80;;;22.20;67.40;;;;;;6085443;28;89228;-71
2023/03/15 08:38:02;;;;;;;3.33;3.03;;;22.20;67.40;;;;;;6086561;28;89407;-71
2023/03/15 08:41:04;;;;;;;3.40;3.10;;;22.20;67.40;;;;;;6086848;28;89883;-71
2023/03/15 08:44:06;;;;;;;3.25;2.90;;;22.20;67.50;;;;;;6087463;28;89117;-71
2023/03/15 08:47:09;;;;;;;3.42;3.13;;;22.20;67.40;;;;;;6099246;28;89160;-70
2023/03/15 08:50:14;;;;;;;3.50;2.92;;;22.20;67.40;;;;;;6090111;28;89229;-71
2023/03/15 08:53:16;;;;;;;3.42;3.10;;;22.20;67.40;;;;;;6074887;28;89074;-70
2023/03/15 08:56:19;;;;;;;4.13;3.42;;;22.20;67.40;;;;;;6097158;28;89105;-70
2023/03/15 08:59:21;;;;;;;3.30;3.00;;;22.20;67.40;;;;;;6097169;28;88112;-71
2023/03/15 09:02:23;;;;;;;3.60;3.30;;;22.20;67.40;;;;;;6090400;28;88416;-70
2023/03/15 09:05:27;;;;;;;3.75;3.30;;;22.20;67.40;;;;;;6086029;28;88594;-71
2023/03/15 09:08:32;;;;;;;3.45;3.15;;;22.20;67.40;;;;;;6085929;28;89010;-71
2023/03/15 09:11:34;;;;;;;3.28;2.97;;;22.20;67.40;;;;;;6085449;28;89861;-71
2023/03/15 09:14:36;;;;;;;3.88;3.30;;;22.20;67.40;;;;;;6085496;28;88023;-71
2023/03/15 09:17:38;;;;;;;3.55;3.25;;;22.20;67.50;;;;;;6096199;28;88999;-71
2023/03/15 09:20:41;;;;;;;3.42;3.08;;;22.20;67.50;;;;;;6074489;28;89146;-72
2023/03/15 09:23:43;;;;;;;3.88;3.35;;;22.20;67.60;;;;;;6085845;28;89115;-71
2023/03/15 09:26:45;;;;;;;4.00;3.58;;;22.20;67.60;;;;;;6080686;28;88313;-71
2023/03/15 09:29:47;;;;;;;3.95;3.55;;;22.10;67.60;;;;;;6079833;28;89090;-70
2023/03/15 09:32:50;;;;;;;3.42;3.13;;;22.10;67.60;;;;;;6086373;28;88333;-72
2023/03/15 09:35:53;;;;;;;4.57;3.53;;;22.10;67.60;;;;;;6085544;28;89102;-71
2023/03/15 09:38:55;;;;;;;4.03;3.63;;;22.10;67.60;;;;;;6073923;28;89172;-71
2023/03/15 09:41:59;;;;;;;4.30;3.72;;;22.20;67.60;;;;;;6073890;28;90037;-71
2023/03/15 09:45:10;;;;;;;3.58;3.28;;;22.20;67.60;;;;;;6096124;28;89216;-71
2023/03/15 09:48:16;;;;;;;3.83;3.42;;;22.20;67.60;;;;;;6086510;28;89383;-71
2023/03/15 09:51:30;;;;;;;3.90;3.50;;;22.10;67.50;;;;;;6107659;28;89025;-71
2023/03/15 09:54:40;;;;;;;4.13;3.72;;;22.20;67.60;;;;;;6086467;28;89529;-71
2023/03/15 09:57:50;;;;;;;3.83;3.42;;;22.10;67.50;;;;;;6087029;28;89212;-71
2023/03/15 10:00:56;;;;;;;4.03;3.63;;;22.20;67.60;;;;;;6070874;28;89071;-71
2023/03/15 10:03:59;;;;;;;3.88;3.58;;;22.10;67.50;;;;;;6081713;28;89512;-71
2023/03/15 10:07:03;;;;;;;3.80;3.40;;;22.20;67.60;;;;;;6087029;28;89048;-71
2023/03/15 10:10:14;;;;;;;4.00;3.53;;;22.20;67.50;;;;;;6096061;28;89117;-71
2023/03/15 10:13:31;;;;;;;4.10;3.70;;;22.20;67.40;;;;;;6095154;28;89855;-71
2023/03/15 10:16:40;;;;;;;4.13;3.65;;;22.20;67.40;;;;;;6085472;28;89084;-71
2023/03/15 10:19:49;;;;;;;4.38;3.85;;;22.20;67.40;;;;;;6084848;28;89144;-72
2023/03/15 10:22:59;;;;;;;3.95;3.55;;;22.20;67.40;;;;;;6096356;28;89067;-71
2023/03/15 10:26:04;;;;;;;4.15;3.75;;;22.20;67.40;;;;;;6078240;28;89364;-71
2023/03/15 10:29:14;;;;;;;4.07;3.67;;;22.20;67.40;;;;;;6080333;28;87630;-71
2023/03/15 10:32:18;;;;;;;4.15;3.67;;;22.20;67.40;;;;;;6085712;28;89482;-73
2023/03/15 10:35:21;;;;;;;4.03;3.60;;;22.20;67.40;;;;;;6085291;28;88344;-71
2023/03/15 10:38:26;;;;;;;4.00;3.55;;;22.20;67.40;;;;;;6083399;28;89162;-71
2023/03/15 10:41:36;;;;;;;4.75;3.85;;;22.20;67.30;;;;;;6083621;28;89259;-72
2023/03/15 10:44:38;;;;;;;4.05;3.65;;;22.20;67.30;;;;;;6083301;28;90403;-72
2023/03/15 10:47:42;;;;;;;4.47;3.85;;;22.20;67.20;;;;;;6082230;28;89039;-72
2023/03/15 10:50:44;;;;;;;4.20;3.80;;;22.30;67.30;;;;;;6085314;28;89100;-72
2023/03/15 10:53:57;;;;;;;4.78;4.25;;;22.30;67.20;;;;;;6084052;28;89514;-71
2023/03/15 10:57:02;;;;;;;4.43;4.03;;;22.30;67.30;;;;;;6087262;28;89068;-71
2023/03/15 11:00:16;;;;;;;4.25;3.85;;;22.30;67.20;;;;;;6081409;28;88613;-71
2023/03/15 11:03:20;;;;;;;4.53;4.13;;;22.30;67.20;;;;;;6079198;28;89345;-72
2023/03/15 11:06:27;;;;;;;4.60;4.20;;;22.30;68.10;;;;;;6072475;28;88746;-71
2023/03/15 11:09:39;;;;;;;4.72;4.25;;;22.30;67.20;;;;;;6084116;28;89086;-71
2023/03/15 11:12:41;;;;;;;5.00;4.25;;;22.30;67.20;;;;;;6083887;28;89489;-72
2023/03/15 11:15:53;;;;;;;4.78;3.92;;;22.30;67.20;;;;;;6084218;28;90353;-71
2023/03/15 11:19:00;;;;;;;4.72;4.30;;;22.30;67.20;;;;;;6084215;28;89045;-72
2023/03/15 11:22:02;;;;;;;4.78;4.18;;;22.30;67.10;;;;;;6083381;28;89317;-71
2023/03/15 11:25:13;;;;;;;4.47;4.07;;;22.30;67.10;;;;;;6084379;28;89135;-72
2023/03/15 11:28:18;;;;;;;5.03;4.50;;;22.30;67.10;;;;;;6061527;28;89089;-71
2023/03/15 11:31:21;;;;;;;4.90;4.40;;;22.30;67.10;;;;;;6096072;28;89109;-71
2023/03/15 11:34:35;;;;;;;5.30;4.80;;;22.40;67.10;;;;;;6096341;28;89130;-72
2023/03/15 11:37:42;;;;;;;4.78;4.32;;;22.40;67.10;;;;;;6084924;28;88397;-72
2023/03/15 11:40:48;;;;;;;5.25;4.75;;;22.30;67.10;;;;;;6087189;28;89113;-72
2023/03/15 11:43:57;;;;;;;4.90;4.40;;;22.40;67.10;;;;;;6087226;28;89031;-71
2023/03/15 11:47:03;;;;;;;5.38;4.88;;;22.30;67.00;;;;;;6087357;28;90063;-71
2023/03/15 11:50:06;;;;;;;5.13;4.63;;;22.40;67.10;;;;;;6088827;28;89151;-72
2023/03/15 11:53:12;;;;;;;4.72;4.32;;;22.40;67.00;;;;;;6088210;28;89070;-71
2023/03/15 11:56:24;;;;;;;5.35;4.82;;;22.40;67.10;;;;;;6087118;28;88036;-71
2023/03/15 11:59:28;;;;;;;5.30;4.80;;;22.30;67.00;;;;;;6079913;28;89218;-71
2023/03/15 12:02:48;;;;;;;5.40;4.90;;;22.40;67.00;;;;;;6079366;28;89075;-71
2023/03/15 12:05:51;;;;;;;5.20;4.70;;;22.40;67.10;;;;;;6083786;28;89020;-72
2023/03/15 12:08:55;;;;;;;5.32;4.82;;;22.40;67.00;;;;;;6092196;28;88770;-72
2023/03/15 12:11:59;;;;;;;6.75;5.25;;;22.40;67.00;;;;;;6095666;28;89077;-71
2023/03/15 12:15:04;;;;;;;5.53;5.00;;;22.40;67.00;;;;;;6087484;28;89182;-71
2023/03/15 12:18:13;;;;;;;5.90;4.88;;;22.40;67.00;;;;;;6098752;28;90200;-71
2023/03/15 12:21:19;;;;;;;5.22;4.72;;;22.40;66.90;;;;;;6098208;28;89133;-72
2023/03/15 12:24:24;;;;;;;5.68;5.18;;;22.40;66.90;;;;;;6087457;28;89319;-72
2023/03/15 12:27:28;;;;;;;5.30;4.80;;;22.40;67.00;;;;;;6087271;28;89112;-71
2023/03/15 12:30:33;;;;;;;5.53;5.03;;;22.40;66.90;;;;;;6087049;28;89391;-72
2023/03/15 12:33:47;;;;;;;5.72;5.18;;;22.40;66.90;;;;;;6087119;28;89151;-72
2023/03/15 12:36:53;;;;;;;5.50;5.00;;;22.40;66.90;;;;;;6090310;28;89014;-72
2023/03/15 12:40:01;;;;;;;6.25;5.65;;;22.40;66.90;;;;;;6106514;28;88441;-72
2023/03/15 12:43:04;;;;;;;6.13;5.47;;;22.40;66.90;;;;;;6087526;28;89163;-72
2023/03/15 12:46:07;;;;;;;6.35;5.75;;;22.40;66.90;;;;;;6087801;28;89129;-72
2023/03/15 12:49:12;;;;;;;6.32;5.72;;;22.40;66.90;;;;;;6088905;28;90345;-72
2023/03/15 12:52:32;;;;;;;7.03;6.25;;;22.50;67.00;;;;;;6085582;28;89024;-72
2023/03/15 12:55:35;;;;;;;6.82;6.13;;;22.50;67.00;;;;;;6083513;28;89078;-71
2023/03/15 12:58:41;;;;;;;6.43;5.82;;;22.40;66.90;;;;;;6082329;28;89183;-72
2023/03/15 13:01:43;;;;;;;7.18;6.47;;;22.40;67.00;;;;;;6076433;28;89273;-72
2023/03/15 13:04:48;;;;;;;7.72;6.93;;;22.40;67.00;;;;;;6086516;28;89202;-72
2023/03/15 13:08:07;;;;;;;6.97;6.28;;;22.50;67.00;;;;;;6107424;28;89239;-72
2023/03/15 13:11:19;;;;;;;7.63;6.90;;;22.40;67.00;;;;;;6089261;28;88513;-72
2023/03/15 13:14:36;;;;;;;8.15;6.85;;;22.40;66.80;;;;;;6073885;28;89412;-72
2023/03/15 13:17:45;;;;;;;7.70;6.93;;;22.40;66.80;;;;;;6098630;28;89100;-71
2023/03/15 13:21:05;;;;;;;7.80;7.00;;;22.40;66.90;;;;;;6084027;28;90127;-72
2023/03/15 13:24:16;;;;;;;7.65;6.95;;;22.50;67.80;;;;;;6085989;28;89461;-72
2023/03/15 13:27:33;;;;;;;7.72;7.03;;;22.50;66.90;;;;;;6088369;28;88054;-72
2023/03/15 13:30:39;;;;;;;7.40;6.70;;;22.50;66.90;;;;;;6096682;28;87900;-71
2023/03/15 13:33:42;;;;;;;9.70;8.80;;;22.50;66.80;;;;;;6086133;28;89240;-72
2023/03/15 13:36:46;;;;;;;8.52;7.53;;;22.50;67.60;;;;;;6076724;28;89103;-71
2023/03/15 13:39:56;;;;;;;8.05;7.18;;;22.50;67.90;;;;;;6082912;28;89176;-71
2023/03/15 13:43:00;;;;;;;8.25;7.40;;;22.50;67.30;;;;;;6089277;28;89347;-71
2023/03/15 13:46:05;;;;;;;7.53;6.82;;;22.50;67.00;;;;;;6084503;28;88926;-71
2023/03/15 13:49:07;;;;;;;8.63;6.93;;;22.50;66.90;;;;;;6081051;28;89065;-69
2023/03/15 13:52:13;;;;;;;11.23;6.93;;;22.50;66.90;;;;;;6079746;28;89993;-72
2023/03/15 13:55:17;;;;;;;9.95;6.50;;;22.50;67.10;;;;;;6082498;28;88931;-71
2023/03/15 13:58:19;;;;;;;8.77;6.68;;;22.50;67.10;;;;;;6083706;28;89172;-71
2023/03/15 14:01:24;;;;;;;8.90;6.57;;;22.50;67.10;;;;;;6075387;28;89651;-71
2023/03/15 14:04:27;;;;;;;7.80;7.00;;;22.50;67.20;;;;;;6087846;28;89068;-71
2023/03/15 14:07:36;;;;;;;7.28;6.40;;;22.50;67.20;;;;;;6094142;28;89217;-71
2023/03/15 14:10:39;;;;;;;7.90;6.20;;;22.50;67.10;;;;;;6091580;28;89383;-70
2023/03/15 14:13:50;;;;;;;6.57;5.68;;;22.50;67.10;;;;;;6099367;28;88556;-71
2023/03/15 14:16:54;;;;;;;7.15;6.45;;;22.50;67.10;;;;;;6092971;28;89012;-70
2023/03/15 14:20:07;;;;;;;7.50;6.20;;;22.50;67.10;;;;;;6084950;28;89535;-71
2023/03/15 14:23:12;;;;;;;6.80;6.10;;;22.50;67.10;;;;;;6084410;28;90355;-71
2023/03/15 14:26:17;;;;;;;6.97;6.00;;;22.50;67.10;;;;;;6089623;28;89089;-71
2023/03/15 14:29:25;;;;;;;6.55;5.80;;;22.50;67.10;;;;;;6089781;28;89207;-71
2023/03/15 14:32:31;;;;;;;6.30;5.70;;;22.50;67.10;;;;;;6083715;28;88033;-72
2023/03/15 14:35:42;;;;;;;6.45;5.75;;;22.50;67.10;;;;;;6079662;28;88855;-71
2023/03/15 14:38:51;;;;;;;6.20;5.60;;;22.50;67.10;;;;;;6096521;28;89139;-71
2023/03/15 14:41:53;;;;;;;6.00;5.40;;;22.50;67.10;;;;;;6079079;28;88711;-71
2023/03/15 14:44:55;;;;;;;5.72;5.22;;;22.50;67.00;;;;;;6084759;28;88707;-71
2023/03/15 14:48:04;;;;;;;6.05;5.45;;;22.50;67.00;;;;;;6093969;28;89822;-71
2023/03/15 14:51:06;;;;;;;5.75;5.15;;;22.50;67.10;;;;;;6089743;28;89249;-72
2023/03/15 14:54:12;;;;;;;5.90;5.30;;;22.50;67.00;;;;;;6084410;28;90034;-71
2023/03/15 14:57:14;;;;;;;6.03;4.70;;;22.50;67.10;;;;;;6084006;28;87858;-71
2023/03/15 15:00:19;;;;;;;5.90;5.28;;;22.50;67.00;;;;;;6084590;28;89951;-72
2023/03/15 15:03:34;;;;;;;5.78;5.18;;;22.50;67.00;;;;;;6076280;28;89115;-71
2023/03/15 15:06:36;;;;;;;5.75;5.07;;;22.50;67.00;;;;;;6076539;28;89163;-71
2023/03/15 15:09:40;;;;;;;5.15;4.65;;;22.50;67.00;;;;;;6085981;28;89523;-71
2023/03/15 15:12:42;;;;;;;5.05;4.55;;;22.50;67.00;;;;;;6072862;28;89312;-71
2023/03/15 15:15:44;;;;;;;4.97;4.50;;;22.50;66.90;;;;;;6091484;28;88366;-70
2023/03/15 15:18:48;;;;;;;5.40;4.90;;;22.50;66.90;;;;;;6090704;28;89504;-71
2023/03/15 15:21:51;;;;;;;7.68;4.93;;;22.60;67.00;;;;;;6087547;28;87936;-71
2023/03/15 15:24:53;;;;;;;5.20;4.70;;;22.50;66.90;;;;;;6091178;28;90141;-72
2023/03/15 15:27:55;;;;;;;5.10;4.45;;;22.50;66.90;;;;;;6078510;28;89352;-71
2023/03/15 15:30:57;;;;;;;5.15;4.65;;;22.50;66.90;;;;;;6087796;28;89090;-72
2023/03/15 15:34:01;;;;;;;4.82;4.20;;;22.50;66.90;;;;;;6089185;28;89325;-72
2023/03/15 15:37:04;;;;;;;4.93;4.22;;;22.50;66.90;;;;;;6077068;28;89178;-72
2023/03/15 15:40:11;;;;;;;4.65;4.25;;;22.50;66.90;;;;;;6075347;28;89197;-72
2023/03/15 15:43:14;;;;;;;4.40;3.88;;;22.50;66.90;;;;;;6087826;28;87992;-72
2023/03/15 15:46:17;;;;;;;4.45;4.03;;;22.50;66.90;;;;;;6088881;28;88267;-71
2023/03/15 15:49:20;;;;;;;4.38;3.60;;;22.50;66.90;;;;;;6091403;28;89015;-72
2023/03/15 15:52:23;;;;;;;4.22;3.80;;;22.50;66.80;;;;;;6093305;28;89126;-71
2023/03/15 15:55:28;;;;;;;4.22;3.75;;;22.50;66.70;;;;;;6099085;28;90084;-71
2023/03/15 15:58:30;;;;;;;4.32;3.90;;;22.50;66.70;;;;;;6087241;28;89119;-72
2023/03/15 16:01:33;;;;;;;3.75;3.35;;;22.60;66.80;;;;;;6080915;28;88964;-71